Time;durP1;ratioP1;P1;durP2;ratioP2;P2;SDS_P1;SDS_P2;PMS_P1;PMS_P2;Temp;Humidity;BMP_temperature;BMP_pressure;BME280_temperature;BME280_humidity;BME280_pressure;Samples;Min_cycle;Max_cycle;Signal;HPM_P1;HPM_P2
2022/10/05 02:43:42;;;;;;;19.15;9.95;;;;;;;8.88;90.77;99699.23;1800174;79;22069;-45
2022/10/05 02:46:36;;;;;;;24.90;9.83;;;;;;;8.83;90.79;99697.67;1761849;80;21019;-49
2022/10/05 02:49:36;;;;;;;18.55;10.23;;;;;;;8.81;91.01;99685.55;1761830;81;21547;-44
2022/10/05 02:52:47;;;;;;;15.53;9.80;;;;;;;8.82;90.67;99681.98;1761780;80;21040;-43
2022/10/05 02:55:27;;;;;;;17.05;9.83;;;;;;;8.81;90.67;99696.88;1761039;81;20992;-51
2022/10/05 02:58:04;;;;;;;20.17;9.95;;;;;;;8.79;90.76;99696.09;1761511;81;20998;-46
2022/10/05 03:00:33;;;;;;;;;;;;;;;8.78;90.56;99706.65;1739128;81;21464;-49
2022/10/05 03:03:16;;;;;;;20.90;9.08;;;;;;;8.77;90.48;99700.55;1761701;80;20100;-49
2022/10/05 03:05:47;;;;;;;13.53;8.23;;;;;;;8.75;90.52;99693.65;1761089;81;20976;-49
2022/10/05 03:08:36;;;;;;;17.62;8.68;;;;;;;8.74;90.40;99688.87;1761169;81;20963;-48
2022/10/05 03:11:40;;;;;;;15.70;8.98;;;;;;;8.74;90.37;99682.78;1761777;81;20955;-51
2022/10/05 03:14:18;;;;;;;14.13;8.40;;;;;;;8.73;90.39;99675.39;1761809;81;21542;-49
2022/10/05 03:17:01;;;;;;;16.27;8.18;;;;;;;8.73;90.91;99673.20;1757181;81;20991;-43
2022/10/05 03:20:00;;;;;;;19.12;9.15;;;;;;;8.76;90.74;99688.81;1761744;81;20971;-49
2022/10/05 03:22:54;;;;;;;15.38;8.30;;;;;;;8.79;90.34;99692.16;1761161;81;21440;-49
2022/10/05 03:25:59;;;;;;;15.08;8.40;;;;;;;8.79;90.42;99692.16;1761889;80;21003;-45
2022/10/05 03:28:32;;;;;;;17.73;8.80;;;;;;;8.76;90.57;99675.70;1761794;81;21050;-52
2022/10/05 03:31:21;;;;;;;17.12;8.68;;;;;;;8.78;90.71;99679.95;1761251;81;21050;-51
2022/10/05 03:33:58;;;;;;;19.55;8.73;;;;;;;8.81;90.59;99683.77;1761739;81;20964;-47
2022/10/05 03:36:45;;;;;;;17.82;8.55;;;;;;;8.84;90.61;99674.47;1761369;80;21003;-49
2022/10/05 03:39:28;;;;;;;23.77;8.25;;;;;;;8.84;90.50;99654.80;1761975;80;20995;-44
2022/10/05 03:42:38;;;;;;;16.87;8.28;;;;;;;8.83;90.52;99653.08;1757112;81;21019;-46
2022/10/05 03:45:39;;;;;;;15.78;7.95;;;;;;;8.83;90.25;99651.77;1747703;82;21035;-47
2022/10/05 03:48:15;;;;;;;16.10;7.17;;;;;;;8.83;90.06;99645.22;1748246;81;21052;-49
2022/10/05 03:50:52;;;;;;;18.45;7.37;;;;;;;8.81;90.26;99646.22;1748764;81;20980;-44
2022/10/05 03:53:24;;;;;;;13.88;7.00;;;;;;;8.83;90.34;99658.33;1748401;81;21059;-48
2022/10/05 03:56:11;;;;;;;18.35;7.90;;;;;;;8.83;90.35;99670.13;1748134;81;21047;-51
2022/10/05 03:58:57;;;;;;;17.25;7.97;;;;;;;8.83;90.33;99665.36;1740340;82;21001;-53
2022/10/05 04:01:41;;;;;;;13.97;7.03;;;;;;;8.82;90.21;99654.02;1653461;85;21476;-51
2022/10/05 04:04:11;;;;;;;16.48;7.78;;;;;;;8.84;89.84;99657.42;1653172;87;21019;-49
2022/10/05 04:06:46;;;;;;;14.98;6.92;;;;;;;8.87;90.22;99655.59;1653476;85;21022;-49
2022/10/05 04:09:20;;;;;;;14.45;6.97;;;;;;;8.89;90.42;99653.28;1653313;87;20991;-50
2022/10/05 04:12:03;;;;;;;15.35;7.15;;;;;;;8.93;89.91;99656.63;1653725;85;21006;-45
2022/10/05 04:14:35;;;;;;;13.38;6.97;;;;;;;8.92;89.99;99649.69;1653625;85;21059;-49
2022/10/05 04:17:06;;;;;;;13.13;6.75;;;;;;;8.94;89.82;99658.34;1653387;85;21086;-51
2022/10/05 04:19:39;;;;;;;17.12;6.78;;;;;;;8.97;90.15;99659.53;1631311;87;21071;-51
2022/10/05 04:22:21;;;;;;;11.97;7.37;;;;;;;8.98;90.31;99663.84;1653301;86;21545;-49
2022/10/05 04:24:58;;;;;;;12.30;6.87;;;;;;;9.02;90.12;99670.66;1653423;87;21015;-46
2022/10/05 04:27:41;;;;;;;12.45;6.33;;;;;;;9.03;89.77;99648.77;1653695;87;21064;-52
2022/10/05 04:30:17;;;;;;;19.23;7.55;;;;;;;9.08;89.52;99645.92;1653338;87;21900;-43
2022/10/05 04:32:51;;;;;;;13.40;7.00;;;;;;;9.09;89.45;99655.05;1653186;85;21087;-48
2022/10/05 04:35:31;;;;;;;22.25;7.20;;;;;;;9.10;89.65;99650.67;1685083;82;20992;-48
2022/10/05 04:38:36;;;;;;;19.37;7.05;;;;;;;9.12;89.59;99650.14;1746246;82;20960;-51
2022/10/05 04:41:22;;;;;;;14.40;6.33;;;;;;;9.12;89.37;99638.34;1748113;82;21338;-52
2022/10/05 04:44:25;;;;;;;14.00;6.53;;;;;;;9.10;89.46;99643.65;1748230;81;20999;-45
2022/10/05 04:47:20;;;;;;;17.32;6.37;;;;;;;9.11;89.33;99644.02;1748202;81;21496;-53
2022/10/05 04:50:17;;;;;;;11.88;5.83;;;;;;;9.13;89.45;99666.27;1748163;82;21031;-46
2022/10/05 04:53:22;;;;;;;16.07;6.95;;;;;;;9.16;89.35;99674.86;1748136;81;21443;-51
2022/10/05 04:56:02;;;;;;;13.22;6.20;;;;;;;9.18;88.97;99665.61;1748200;81;21063;-46
2022/10/05 04:59:17;;;;;;;13.25;6.50;;;;;;;9.22;89.04;99668.48;1748224;81;20972;-48
2022/10/05 05:01:54;;;;;;;9.33;6.00;;;;;;;9.20;89.10;99662.02;1748321;81;21008;-49
2022/10/05 05:04:28;;;;;;;14.90;6.25;;;;;;;9.19;88.84;99677.36;1747215;81;21043;-51
2022/10/05 05:07:19;;;;;;;14.45;6.08;;;;;;;9.20;88.71;99679.08;1747384;81;20996;-52
2022/10/05 05:10:26;;;;;;;12.13;5.78;;;;;;;9.19;88.79;99679.98;1747939;82;21461;-54
2022/10/05 05:13:03;;;;;;;10.48;5.53;;;;;;;9.25;88.60;99681.48;1748117;82;21004;-53
2022/10/05 05:15:45;;;;;;;46.75;7.47;;;;;;;9.28;88.67;99671.30;1748109;81;21464;-51
2022/10/05 05:18:42;;;;;;;27.05;6.60;;;;;;;9.25;88.75;99669.67;1748105;81;21445;-52
2022/10/05 05:21:29;;;;;;;13.70;6.58;;;;;;;9.26;88.63;99676.64;1748282;81;21083;-49
2022/10/05 05:24:19;;;;;;;18.07;6.47;;;;;;;9.28;88.51;99675.23;1748228;81;21008;-51
2022/10/05 05:27:14;;;;;;;16.32;6.20;;;;;;;9.27;88.57;99675.70;1748064;82;20998;-51
2022/10/05 05:30:02;;;;;;;10.78;5.80;;;;;;;9.27;88.57;99666.98;1747846;81;21501;-51
2022/10/05 05:33:01;;;;;;;14.93;6.62;;;;;;;9.29;88.56;99670.39;1748098;81;21000;-49
2022/10/05 05:36:06;;;;;;;17.92;6.78;;;;;;;9.34;89.00;99678.92;1747492;81;21003;-52
2022/10/05 05:38:47;;;;;;;17.65;6.20;;;;;;;9.37;88.62;99667.83;1748111;81;21183;-50
2022/10/05 05:41:30;;;;;;;14.78;6.10;;;;;;;9.40;88.25;99665.08;1748110;81;20988;-53
2022/10/05 05:44:04;;;;;;;17.02;6.33;;;;;;;9.43;88.42;99674.57;1748012;81;21020;-49
2022/10/05 05:46:40;;;;;;;14.38;6.60;;;;;;;9.45;88.11;99671.88;1748130;82;21051;-51
2022/10/05 05:49:20;;;;;;;25.57;6.22;;;;;;;9.54;88.09;99674.94;1748355;81;20999;-55
2022/10/05 05:52:00;;;;;;;13.30;6.22;;;;;;;9.56;87.67;99679.66;1747980;81;20972;-52
2022/10/05 05:54:34;;;;;;;14.55;6.25;;;;;;;9.61;87.30;99682.94;1748094;82;21004;-51
2022/10/05 05:57:12;;;;;;;20.57;6.53;;;;;;;9.66;87.13;99669.61;1747906;81;21019;-47
2022/10/05 06:00:10;;;;;;;15.30;5.37;;;;;;;9.70;87.02;99670.33;1748215;81;21035;-51
2022/10/05 06:03:03;;;;;;;19.90;6.70;;;;;;;9.67;87.03;99664.73;1747720;81;21000;-52
2022/10/05 06:05:37;;;;;;;17.62;5.87;;;;;;;9.77;86.93;99671.75;1748182;81;20976;-52
2022/10/05 06:08:16;;;;;;;20.40;6.62;;;;;;;9.80;86.70;99665.02;1747956;81;20984;-48
2022/10/05 06:10:52;;;;;;;22.80;6.20;;;;;;;9.91;86.70;99666.69;1747272;81;21000;-56
2022/10/05 06:13:29;;;;;;;13.53;5.75;;;;;;;9.98;86.78;99679.92;1748043;81;21497;-49
2022/10/05 06:16:00;;;;;;;16.23;6.03;;;;;;;10.06;86.64;99686.16;1748157;82;21520;-53
2022/10/05 06:18:29;;;;;;;16.95;5.90;;;;;;;10.12;86.40;99677.13;1748095;81;21030;-52
2022/10/05 06:21:12;;;;;;;10.38;5.50;;;;;;;10.19;86.58;99677.23;1748092;81;20972;-52
2022/10/05 06:23:46;;;;;;;10.93;5.58;;;;;;;10.22;86.01;99681.48;1748277;81;20996;-48
2022/10/05 06:26:24;;;;;;;17.85;6.20;;;;;;;10.28;85.73;99670.69;1747685;81;20988;-51
2022/10/05 06:28:55;;;;;;;11.60;5.70;;;;;;;10.29;85.85;99662.70;1747770;81;20968;-49
2022/10/05 06:31:32;;;;;;;12.13;5.28;;;;;;;10.30;85.76;99661.80;1747985;81;21524;-48
2022/10/05 06:34:34;;;;;;;8.63;5.80;;;;;;;10.35;85.53;99676.92;1748117;82;21453;-53
2022/10/05 06:37:05;;;;;;;13.32;5.50;;;;;;;10.41;85.63;99682.81;1747871;81;20987;-45
2022/10/05 06:39:45;;;;;;;11.35;5.22;;;;;;;10.49;85.55;99683.28;1736293;82;21032;-51
2022/10/05 06:42:22;;;;;;;15.32;5.70;;;;;;;10.54;85.34;99674.70;1748189;80;21059;-49
2022/10/05 06:44:56;;;;;;;19.05;6.03;;;;;;;10.55;84.84;99675.95;1760444;81;21439;-50
2022/10/05 06:48:08;;;;;;;17.23;5.70;;;;;;;10.60;84.69;99671.77;1760988;81;21015;-53
2022/10/05 06:50:51;;;;;;;16.12;5.85;;;;;;;10.63;84.43;99667.67;1759839;81;20952;-46
2022/10/05 06:53:32;;;;;;;8.80;5.40;;;;;;;10.69;84.68;99668.67;1760784;81;20991;-47
2022/10/05 06:56:12;;;;;;;14.53;5.95;;;;;;;10.73;84.26;99673.31;1761306;80;21330;-50
2022/10/05 06:59:07;;;;;;;19.75;6.55;;;;;;;10.83;84.53;99682.47;1760988;81;20991;-55
2022/10/05 07:01:55;;;;;;;16.57;5.78;;;;;;;10.83;83.54;99682.47;1761020;81;20990;-51
2022/10/05 07:04:45;;;;;;;24.18;6.12;;;;;;;10.88;83.54;99687.51;1760158;81;20982;-47
2022/10/05 07:07:22;;;;;;;12.82;5.70;;;;;;;10.96;83.55;99686.64;1761062;81;20948;-49
2022/10/05 07:09:57;;;;;;;;;;;;;;;11.02;83.57;99688.95;1763008;81;21006;-43
2022/10/05 07:12:43;;;;;;;12.40;5.65;;;;;;;11.07;83.41;99696.16;1761181;81;20114;-51
2022/10/05 07:15:54;;;;;;;16.93;6.15;;;;;;;11.12;82.93;99698.09;1732974;81;21006;-53
2022/10/05 07:18:41;;;;;;;14.55;5.97;;;;;;;11.22;82.88;99694.98;1761098;81;21042;-45
2022/10/05 07:21:38;;;;;;;16.90;5.53;;;;;;;11.29;82.62;99699.84;1720703;81;21531;-50
2022/10/05 07:24:33;;;;;;;13.70;5.75;;;;;;;11.32;82.22;99693.59;1760537;81;21034;-47
2022/10/05 07:27:19;;;;;;;;;;;;;;;11.33;81.88;99697.91;1762973;81;20986;-53
2022/10/05 07:30:07;;;;;;;16.17;6.42;;;;;;;11.43;82.20;99691.24;1760025;81;20158;-47
2022/10/05 07:32:41;;;;;;;11.73;6.00;;;;;;;11.44;81.53;99691.64;1759654;81;21011;-44
2022/10/05 07:39:02;;;;;;;16.30;6.10;;;;;;;11.55;81.83;99673.09;1761329;81;21622;-49
2022/10/05 07:41:46;;;;;;;17.57;5.75;;;;;;;11.60;81.25;99677.65;1727761;82;21507;-51
2022/10/05 07:44:37;;;;;;;13.22;5.78;;;;;;;11.64;81.06;99671.27;1720792;83;21003;-48
2022/10/05 07:47:20;;;;;;;12.15;5.35;;;;;;;11.74;81.31;99675.13;1696099;83;21046;-50
2022/10/05 07:50:17;;;;;;;16.25;5.85;;;;;;;11.81;81.04;99662.00;1712295;82;20968;-45
2022/10/05 07:52:48;;;;;;;24.27;6.97;;;;;;;11.87;80.67;99662.98;1700004;83;20968;-48
2022/10/05 07:55:40;;;;;;;26.95;7.00;;;;;;;11.84;79.57;99654.39;1698273;84;20960;-51
2022/10/05 07:58:29;;;;;;;12.88;6.05;;;;;;;11.87;79.11;99655.55;1699969;84;21022;-44
2022/10/05 08:01:21;;;;;;;12.78;6.03;;;;;;;11.89;79.67;99657.15;1699898;84;20983;-51
2022/10/05 08:04:26;;;;;;;15.98;6.05;;;;;;;11.98;79.68;99654.99;1699646;84;21497;-46
2022/10/05 08:07:09;;;;;;;12.15;5.83;;;;;;;12.06;80.08;99653.64;1700017;84;20984;-47
2022/10/05 08:09:50;;;;;;;14.55;5.78;;;;;;;12.18;80.22;99662.62;1699851;84;21036;-46
2022/10/05 08:12:43;;;;;;;12.43;5.40;;;;;;;12.34;79.77;99649.92;1699994;84;21047;-52
2022/10/05 08:15:41;;;;;;;10.43;4.90;;;;;;;12.47;78.98;99644.31;1699192;84;21256;-50
2022/10/05 08:18:44;;;;;;;12.10;5.60;;;;;;;12.63;78.03;99645.13;1710355;83;21024;-54
2022/10/05 08:21:12;;;;;;;9.40;4.70;;;;;;;12.88;78.91;99638.42;1703604;83;20992;-48
2022/10/05 08:23:57;;;;;;;9.58;4.83;;;;;;;13.02;77.71;99639.77;1730109;82;21492;-50
2022/10/05 08:26:54;;;;;;;9.75;5.17;;;;;;;13.12;77.17;99635.26;1730053;82;20969;-46
2022/10/05 08:29:49;;;;;;;6.40;4.30;;;;;;;13.23;76.11;99635.45;1729957;83;21476;-48
2022/10/05 08:32:49;;;;;;;12.15;4.50;;;;;;;13.38;76.78;99625.77;1729055;83;20988;-50
2022/10/05 08:35:36;;;;;;;12.00;4.90;;;;;;;13.42;74.74;99629.45;1730055;83;21489;-50
2022/10/05 08:38:12;;;;;;;8.65;4.28;;;;;;;13.58;76.28;99636.42;1730183;82;20945;-48
2022/10/05 08:41:09;;;;;;;9.15;4.30;;;;;;;13.63;75.10;99634.34;1724566;82;20972;-49
2022/10/05 08:43:44;;;;;;;;;;;;;;;13.67;75.34;99637.16;1722355;82;21035;-49
2022/10/05 08:46:48;;;;;;;10.78;4.65;;;;;;;13.68;75.48;99641.52;1716552;83;20131;-51
2022/10/05 08:49:22;;;;;;;12.43;4.78;;;;;;;13.72;74.55;99642.17;1718206;82;20992;-47
2022/10/05 08:51:53;;;;;;;12.40;5.10;;;;;;;13.80;75.21;99639.40;1716486;83;21008;-47
2022/10/05 08:54:53;;;;;;;10.70;4.12;;;;;;;13.83;74.74;99639.70;1717817;83;20964;-48
2022/10/05 08:57:33;;;;;;;9.38;4.53;;;;;;;13.92;75.15;99642.23;1718309;82;21024;-51
2022/10/05 09:00:13;;;;;;;14.38;4.60;;;;;;;13.97;74.64;99639.67;1717603;83;21019;-50
2022/10/05 09:03:13;;;;;;;10.30;4.90;;;;;;;13.95;73.10;99644.66;1718305;82;21031;-50
2022/10/05 09:06:07;;;;;;;11.18;4.65;;;;;;;14.01;72.69;99642.97;1718247;83;20972;-48
2022/10/05 09:09:04;;;;;;;8.43;4.08;;;;;;;14.13;73.24;99632.91;1718277;82;20984;-51
2022/10/05 09:11:36;;;;;;;9.90;3.87;;;;;;;14.23;73.67;99636.30;1718338;82;20996;-45
2022/10/05 09:14:34;;;;;;;9.55;3.75;;;;;;;14.33;73.30;99631.61;1725722;81;20940;-50
2022/10/05 09:17:44;;;;;;;9.05;4.00;;;;;;;14.16;70.85;99631.39;1745730;82;20944;-47
2022/10/05 09:20:32;;;;;;;6.97;3.70;;;;;;;14.18;71.41;99637.42;1750769;81;21433;-48
2022/10/05 09:23:18;;;;;;;10.90;4.62;;;;;;;14.23;71.18;99638.95;1740069;82;20968;-51
2022/10/05 09:26:12;;;;;;;8.83;3.90;;;;;;;14.30;71.71;99632.31;1749953;80;20944;-52
2022/10/05 09:29:04;;;;;;;7.58;3.92;;;;;;;14.34;71.51;99623.22;1758349;80;20925;-48
2022/10/05 09:32:09;;;;;;;8.60;4.05;;;;;;;14.35;71.85;99632.83;1723722;82;20949;-45
2022/10/05 09:34:55;;;;;;;14.73;3.92;;;;;;;14.10;70.33;99638.41;1744964;82;20988;-46
2022/10/05 09:37:32;;;;;;;6.28;3.85;;;;;;;14.17;70.65;99637.52;1730075;82;21000;-52
2022/10/05 09:40:47;;;;;;;9.58;4.28;;;;;;;14.23;70.08;99638.95;1742372;82;20988;-48
2022/10/05 09:43:52;;;;;;;13.13;4.58;;;;;;;14.27;71.05;99643.09;1728957;81;21007;-50
2022/10/05 09:46:59;;;;;;;21.27;11.03;;;;;;;14.38;71.32;99647.20;1753542;82;20936;-51
2022/10/05 09:49:39;;;;;;;11.83;5.15;;;;;;;14.45;71.27;99652.45;1729453;82;20939;-48
2022/10/05 09:52:40;;;;;;;14.95;4.85;;;;;;;14.51;70.38;99662.62;1753565;82;20956;-46
2022/10/05 09:55:28;;;;;;;8.65;4.30;;;;;;;14.61;70.73;99663.38;1730317;82;20995;-52
2022/10/05 09:58:23;;;;;;;8.50;4.03;;;;;;;14.72;70.18;99667.02;1753483;82;20959;-50
2022/10/05 10:01:27;;;;;;;7.28;4.10;;;;;;;14.86;70.73;99655.52;1752149;81;20944;-49
2022/10/05 10:04:28;;;;;;;10.78;4.28;;;;;;;15.01;70.81;99649.66;1735565;82;20956;-47
2022/10/05 10:07:47;;;;;;;7.72;4.10;;;;;;;15.05;69.38;99648.98;1751307;82;21006;-48
2022/10/05 10:10:28;;;;;;;7.47;3.87;;;;;;;15.12;69.83;99651.58;1738690;82;20959;-47
2022/10/05 10:13:13;;;;;;;10.78;3.70;;;;;;;15.24;69.66;99644.58;1751449;82;20944;-51
2022/10/05 10:15:51;;;;;;;10.78;4.10;;;;;;;15.35;69.89;99649.52;1732497;82;21491;-49
2022/10/05 10:18:49;;;;;;;6.28;3.40;;;;;;;15.44;68.57;99653.30;1752818;82;20960;-46
2022/10/05 10:21:41;;;;;;;4.90;3.08;;;;;;;15.52;68.43;99646.17;1753461;82;20951;-44
2022/10/05 10:24:51;;;;;;;5.85;3.37;;;;;;;15.63;68.04;99644.92;1752398;81;20962;-51
2022/10/05 10:27:44;;;;;;;9.23;4.10;;;;;;;15.70;67.31;99648.84;1753476;82;21023;-50
2022/10/05 10:31:05;;;;;;;5.87;3.42;;;;;;;15.78;67.63;99647.48;1752161;82;21049;-51
2022/10/05 10:34:08;;;;;;;8.95;3.75;;;;;;;15.85;66.94;99652.23;1730429;82;20948;-49
2022/10/05 10:37:15;;;;;;;10.05;3.98;;;;;;;16.01;67.55;99641.83;1753038;81;21473;-43
2022/10/05 10:40:22;;;;;;;9.83;2.98;;;;;;;16.15;66.92;99625.77;1732979;82;21521;-48
2022/10/05 10:43:08;;;;;;;7.10;3.37;;;;;;;16.20;66.95;99616.98;1753548;81;20956;-47
2022/10/05 10:46:06;;;;;;;7.45;3.77;;;;;;;16.26;65.92;99613.03;1730561;82;20929;-44
2022/10/05 10:48:56;;;;;;;7.72;3.08;;;;;;;16.29;65.92;99614.14;1754900;82;21607;-45
2022/10/05 10:51:50;;;;;;;5.72;3.30;;;;;;;16.38;65.77;99616.60;1730465;82;20998;-45
2022/10/05 10:54:24;;;;;;;8.13;3.40;;;;;;;16.49;65.61;99626.77;1749845;82;20979;-43
2022/10/05 10:57:02;;;;;;;5.45;2.70;;;;;;;16.57;64.59;99626.23;1753652;82;20960;-46
2022/10/05 11:00:16;;;;;;;10.78;3.20;;;;;;;16.73;65.15;99624.56;1730829;82;21012;-47
2022/10/05 11:03:02;;;;;;;4.20;2.75;;;;;;;16.82;64.49;99620.37;1723452;82;21539;-47
2022/10/05 11:05:57;;;;;;;8.93;2.87;;;;;;;16.87;64.40;99620.41;1729827;82;20920;-46
2022/10/05 11:09:09;;;;;;;7.53;3.70;;;;;;;16.89;63.92;99621.14;1752055;80;21058;-49
2022/10/05 11:12:07;;;;;;;5.67;3.12;;;;;;;16.81;62.98;99623.52;1731889;82;20983;-47
2022/10/05 11:14:57;;;;;;;9.38;3.15;;;;;;;16.80;63.51;99615.17;1712001;83;21005;-48
2022/10/05 11:17:51;;;;;;;8.58;2.95;;;;;;;16.88;64.62;99606.19;1728376;82;21481;-50
2022/10/05 11:20:42;;;;;;;4.65;2.72;;;;;;;16.82;64.25;99614.57;1749937;82;21019;-47
2022/10/05 11:23:25;;;;;;;5.75;3.00;;;;;;;16.78;63.73;99606.48;1754230;81;21067;-50
2022/10/05 11:26:17;;;;;;;5.30;2.77;;;;;;;16.86;64.23;99597.95;1753670;82;21054;-46
2022/10/05 11:29:31;;;;;;;6.15;2.83;;;;;;;16.87;63.74;99601.82;1753464;81;21023;-45
2022/10/05 11:32:08;;;;;;;10.35;2.92;;;;;;;16.87;63.75;99602.31;1737566;82;21496;-45
2022/10/05 11:34:48;;;;;;;3.47;2.90;;;;;;;16.88;62.70;99599.55;1752607;82;21023;-45
2022/10/05 11:37:56;;;;;;;8.90;3.05;;;;;;;16.95;63.57;99603.05;1727145;82;20948;-44
2022/10/05 11:40:50;;;;;;;9.40;3.33;;;;;;;16.96;63.61;99596.29;1751118;82;20952;-47
2022/10/05 11:43:41;;;;;;;7.60;2.90;;;;;;;16.98;62.67;99587.72;1754918;82;21563;-46
2022/10/05 11:46:27;;;;;;;7.08;2.85;;;;;;;16.99;63.67;99588.55;1725793;82;20947;-48
2022/10/05 11:49:27;;;;;;;4.33;2.90;;;;;;;17.03;63.57;99600.66;1754024;82;20979;-46
2022/10/05 11:52:20;;;;;;;9.45;2.98;;;;;;;17.02;62.89;99594.97;1734925;82;21492;-47
2022/10/05 11:55:06;;;;;;;5.33;2.77;;;;;;;17.13;62.85;99587.50;1753205;81;21007;-49
2022/10/05 11:57:37;;;;;;;3.13;2.50;;;;;;;17.26;63.14;99582.91;1730226;82;21003;-44
2022/10/05 12:00:26;;;;;;;11.48;2.80;;;;;;;17.43;62.96;99588.23;1752090;81;20936;-44
2022/10/05 12:03:04;;;;;;;4.30;2.72;;;;;;;17.63;62.99;99580.84;1753024;82;21031;-45
2022/10/05 12:06:23;;;;;;;13.00;3.05;;;;;;;17.77;61.62;99581.53;1729176;82;21452;-42
2022/10/05 12:09:03;;;;;;;7.45;2.83;;;;;;;17.97;62.03;99583.48;1751853;81;21004;-43
2022/10/05 12:11:57;;;;;;;6.70;2.12;;;;;;;18.22;60.68;99578.79;1730142;82;20955;-45
2022/10/05 12:15:00;;;;;;;4.60;2.20;;;;;;;18.56;56.84;99575.99;1752449;82;21473;-45
2022/10/05 12:17:41;;;;;;;5.08;2.30;;;;;;;19.33;57.46;99565.44;1728013;82;21091;-41
2022/10/05 12:20:36;;;;;;;5.03;2.50;;;;;;;20.32;52.75;99558.36;1752674;81;20940;-43
2022/10/05 12:23:20;;;;;;;6.00;2.65;;;;;;;21.44;53.64;99563.53;1753078;81;21030;-43
2022/10/05 12:25:57;;;;;;;6.33;2.20;;;;;;;22.67;51.14;99557.30;1753586;81;20958;-48
2022/10/05 12:28:40;;;;;;;2.77;2.10;;;;;;;22.53;50.08;99556.84;1753504;82;21449;-41
2022/10/05 12:31:20;;;;;;;8.38;2.27;;;;;;;21.96;51.25;99560.33;1744191;82;20979;-42
2022/10/05 12:33:54;;;;;;;4.80;2.83;;;;;;;21.36;50.46;99552.24;1753111;81;20951;-41
2022/10/05 12:36:48;;;;;;;5.17;2.50;;;;;;;21.28;52.77;99557.47;1753528;82;20952;-44
2022/10/05 12:39:44;;;;;;;6.75;2.50;;;;;;;21.05;52.29;99559.19;1753311;81;21006;-46
2022/10/05 12:42:21;;;;;;;6.42;2.72;;;;;;;20.85;52.51;99561.06;1752488;81;21294;-45
2022/10/05 12:45:42;;;;;;;4.37;2.00;;;;;;;20.59;52.60;99554.14;1757121;80;21039;-42
2022/10/05 12:48:18;;;;;;;4.25;2.00;;;;;;;20.45;52.47;99549.23;1737111;81;20920;-47
2022/10/05 12:51:17;;;;;;;9.60;2.40;;;;;;;20.19;52.79;99555.61;1760682;81;20959;-42
2022/10/05 12:54:08;;;;;;;3.42;1.90;;;;;;;19.86;52.98;99543.84;1739032;82;21441;-44
2022/10/05 12:57:03;;;;;;;3.80;2.27;;;;;;;19.56;53.73;99548.25;1759516;81;20959;-43
2022/10/05 13:00:02;;;;;;;4.35;2.40;;;;;;;19.27;54.18;99544.16;1736374;82;20959;-45
2022/10/05 13:02:49;;;;;;;4.67;2.17;;;;;;;19.03;54.58;99531.16;1759510;81;20980;-43
2022/10/05 13:05:38;;;;;;;;;;;;;;;18.86;55.10;99546.41;1763936;81;21418;-45
2022/10/05 13:08:30;;;;;;;9.75;2.42;;;;;;;18.71;55.38;99543.21;1760177;81;20110;-45
2022/10/05 13:11:16;;;;;;;6.22;2.08;;;;;;;18.72;55.93;99548.41;1761184;81;21002;-44
2022/10/05 13:14:08;;;;;;;7.08;2.10;;;;;;;18.76;56.21;99548.50;1757865;81;20971;-46
2022/10/05 13:16:49;;;;;;;3.80;1.80;;;;;;;18.82;55.70;99548.98;1761302;81;20939;-47
2022/10/05 13:19:45;;;;;;;10.43;2.70;;;;;;;18.75;55.88;99544.13;1761075;81;20956;-44
2022/10/05 13:22:31;;;;;;;3.75;2.20;;;;;;;18.91;56.14;99539.70;1759545;81;20992;-47
2022/10/05 13:25:25;;;;;;;4.08;1.60;;;;;;;18.98;55.92;99540.03;1758341;81;21046;-45
2022/10/05 13:28:02;;;;;;;3.37;2.25;;;;;;;18.87;55.59;99540.12;1760787;81;20997;-49
2022/10/05 13:30:28;;;;;;;5.83;2.00;;;;;;;18.70;55.57;99539.71;1760496;81;20956;-51
2022/10/05 13:33:05;;;;;;;4.12;2.02;;;;;;;18.61;56.13;99528.02;1761539;81;21003;-48
2022/10/05 13:35:40;;;;;;;7.58;2.00;;;;;;;18.60;56.49;99530.30;1736437;81;20943;-44
2022/10/05 13:38:29;;;;;;;13.25;4.60;;;;;;;18.56;57.06;99532.05;1760331;81;21532;-47
2022/10/05 13:41:10;;;;;;;8.03;2.10;;;;;;;18.42;57.01;99531.38;1761378;81;20940;-45
2022/10/05 13:43:48;;;;;;;2.40;2.05;;;;;;;18.21;57.00;99518.56;1738926;81;20956;-49
2022/10/05 13:46:32;;;;;;;5.55;1.82;;;;;;;17.97;57.65;99519.63;1750195;81;21027;-43
2022/10/05 13:49:18;;;;;;;7.40;2.75;;;;;;;17.97;57.93;99520.95;1733068;81;20967;-47
2022/10/05 13:51:57;;;;;;;5.40;1.85;;;;;;;17.90;57.81;99518.91;1755936;81;21457;-50
2022/10/05 13:54:42;;;;;;;12.95;2.15;;;;;;;17.74;58.05;99518.81;1725869;83;21018;-49
2022/10/05 13:57:25;;;;;;;4.25;2.02;;;;;;;17.72;58.03;99520.75;1718349;81;21051;-47
2022/10/05 13:59:59;;;;;;;6.08;2.02;;;;;;;17.81;57.96;99519.16;1751910;81;21425;-46
2022/10/05 14:02:36;;;;;;;12.10;2.72;;;;;;;17.96;57.74;99509.94;1725662;83;21554;-49
2022/10/05 14:05:23;;;;;;;9.60;3.05;;;;;;;18.21;57.99;99506.09;1713705;83;21458;-45
2022/10/05 14:08:03;;;;;;;4.17;1.80;;;;;;;18.19;57.11;99508.50;1720021;83;21016;-45
2022/10/05 14:10:39;;;;;;;7.78;1.92;;;;;;;18.43;57.31;99509.61;1721328;82;21051;-46
2022/10/05 14:13:45;;;;;;;8.13;2.63;;;;;;;18.60;57.08;99506.84;1763574;81;20971;-47
2022/10/05 14:16:24;;;;;;;7.78;2.47;;;;;;;18.38;56.41;99502.48;1725250;83;21027;-48
2022/10/05 14:18:57;;;;;;;5.33;2.50;;;;;;;18.34;57.03;99507.73;1715315;83;21489;-46
2022/10/05 14:21:30;;;;;;;9.15;2.30;;;;;;;18.05;57.33;99503.51;1704252;83;21122;-47
2022/10/05 14:24:16;;;;;;;3.52;2.25;;;;;;;18.01;57.59;99510.41;1753461;81;21018;-47
2022/10/05 14:26:49;;;;;;;3.58;2.00;;;;;;;17.89;57.83;99505.26;1761584;81;20982;-47
2022/10/05 14:29:19;;;;;;;5.62;2.20;;;;;;;17.84;58.01;99508.25;1761114;81;20937;-48
2022/10/05 14:32:19;;;;;;;7.37;2.35;;;;;;;17.81;58.28;99505.86;1732567;81;20943;-47
2022/10/05 14:34:56;;;;;;;4.33;2.08;;;;;;;17.78;58.72;99510.93;1760593;80;20924;-46
2022/10/05 14:37:26;;;;;;;6.95;2.30;;;;;;;17.81;58.80;99507.19;1730804;81;21363;-50
2022/10/05 14:39:56;;;;;;;3.72;1.87;;;;;;;17.79;58.99;99507.31;1736396;81;20952;-47
2022/10/05 14:42:29;;;;;;;7.00;2.20;;;;;;;17.81;58.82;99505.86;1762060;80;21002;-48
2022/10/05 14:45:24;;;;;;;5.20;2.58;;;;;;;17.61;59.55;99497.69;1754191;81;21082;-47
2022/10/05 14:48:05;;;;;;;11.15;2.33;;;;;;;17.70;59.23;99497.89;1726233;82;21013;-48
2022/10/05 14:50:31;;;;;;;6.60;2.20;;;;;;;17.62;59.22;99498.03;1744654;82;21445;-47
2022/10/05 14:53:09;;;;;;;7.50;2.30;;;;;;;17.55;59.43;99497.33;1741313;82;20983;-51
2022/10/05 14:56:06;;;;;;;10.80;2.15;;;;;;;17.50;59.58;99493.73;1746187;81;20956;-48
2022/10/05 14:59:09;;;;;;;5.37;1.90;;;;;;;17.54;60.04;99489.84;1717590;82;21450;-50
2022/10/05 15:01:46;;;;;;;7.95;2.60;;;;;;;17.50;60.04;99478.23;1724069;82;20987;-45
2022/10/05 15:04:21;;;;;;;4.05;2.08;;;;;;;17.42;60.60;99474.87;1743743;82;20956;-51
2022/10/05 15:07:22;;;;;;;4.90;1.98;;;;;;;17.32;60.96;99481.44;1739554;81;20932;-53
2022/10/05 15:09:56;;;;;;;3.92;2.10;;;;;;;17.27;60.94;99476.47;1725950;82;20964;-48
2022/10/05 15:12:36;;;;;;;4.03;2.15;;;;;;;17.13;61.62;99476.73;1742793;82;20948;-48
2022/10/05 15:15:24;;;;;;;6.28;2.70;;;;;;;17.06;61.53;99471.54;1747667;82;20924;-48
2022/10/05 15:17:58;;;;;;;6.03;2.15;;;;;;;17.00;61.94;99472.04;1746376;82;21524;-47
2022/10/05 15:20:45;;;;;;;5.10;2.50;;;;;;;16.84;62.71;99463.09;1747287;82;20953;-48
2022/10/05 15:23:24;;;;;;;10.13;2.55;;;;;;;16.79;62.71;99467.89;1746651;81;20979;-47
2022/10/05 15:26:09;;;;;;;4.92;2.70;;;;;;;16.74;63.07;99465.61;1731614;82;20944;-44
2022/10/05 15:29:07;;;;;;;7.80;2.55;;;;;;;16.67;63.47;99459.92;1723934;82;20968;-50
2022/10/05 15:31:41;;;;;;;5.62;2.65;;;;;;;16.59;63.64;99458.36;1723609;82;20966;-49
2022/10/05 15:34:33;;;;;;;4.72;2.58;;;;;;;16.47;64.42;99460.63;1740013;82;20992;-47
2022/10/05 15:37:27;;;;;;;10.38;3.12;;;;;;;16.44;64.29;99460.37;1746544;82;20976;-46
2022/10/05 15:39:59;;;;;;;6.37;2.47;;;;;;;16.36;65.07;99461.45;1747389;81;20955;-45
2022/10/05 15:42:37;;;;;;;14.60;2.70;;;;;;;16.28;64.77;99453.22;1747302;82;20979;-44
2022/10/05 15:45:23;;;;;;;25.48;3.15;;;;;;;16.22;65.04;99460.33;1745717;81;21011;-43
2022/10/05 15:48:09;;;;;;;8.65;3.00;;;;;;;16.15;65.04;99451.98;1753509;81;21558;-46
2022/10/05 15:51:04;;;;;;;14.95;3.30;;;;;;;16.06;65.26;99448.24;1739051;82;20979;-45